Time;durP1;ratioP1;P1;durP2;ratioP2;P2;SDS_P1;SDS_P2;PMS_P1;PMS_P2;Temp;Humidity;BMP_temperature;BMP_pressure;BME280_temperature;BME280_humidity;BME280_pressure;Samples;Min_cycle;Max_cycle;Signal;HPM_P1;HPM_P2
2021/05/13 00:01:25;;;;;;;15.95;7.80;;;;;;;10.19;84.90;100454.70;1664769;84;21098;-62
2021/05/13 00:03:52;;;;;;;16.37;7.25;;;;;;;10.21;84.67;100447.47;1671525;84;21162;-62
2021/05/13 00:06:20;;;;;;;14.95;7.20;;;;;;;10.23;84.39;100445.61;1692162;84;21149;-61
2021/05/13 00:08:54;;;;;;;19.00;8.70;;;;;;;10.24;84.09;100443.81;1659658;85;21124;-62
2021/05/13 00:11:17;;;;;;;19.92;8.80;;;;;;;10.27;83.94;100447.23;1715238;81;21508;-62
2021/05/13 00:13:45;;;;;;;34.65;10.15;;;;;;;10.29;83.77;100448.52;1732100;82;21090;-62
2021/05/13 00:16:11;;;;;;;54.45;10.38;;;;;;;10.28;83.93;100451.69;1731925;82;21091;-62
2021/05/13 00:18:38;;;;;;;71.67;10.03;;;;;;;10.25;83.92;100454.45;1732261;82;21103;-61
2021/05/13 00:21:04;;;;;;;52.90;9.10;;;;;;;10.21;83.83;100454.66;1732134;82;21630;-64
2021/05/13 00:23:32;;;;;;;20.35;7.70;;;;;;;10.17;83.81;100456.56;1732048;81;20983;-63
2021/05/13 00:25:59;;;;;;;19.42;6.67;;;;;;;10.15;83.81;100464.64;1719304;81;21067;-63
2021/05/13 00:28:25;;;;;;;16.05;6.67;;;;;;;10.15;83.63;100463.79;1702777;84;21144;-62
2021/05/13 00:30:51;;;;;;;15.63;7.67;;;;;;;10.16;83.49;100455.67;1702848;83;21098;-62
2021/05/13 00:33:18;;;;;;;14.23;6.87;;;;;;;10.20;83.46;100449.75;1702660;84;21145;-63
2021/05/13 00:35:45;;;;;;;18.40;7.00;;;;;;;10.22;83.41;100450.55;1702803;84;21071;-61
2021/05/13 00:38:11;;;;;;;19.87;7.75;;;;;;;10.24;83.27;100446.01;1702685;83;21592;-62
2021/05/13 00:40:38;;;;;;;17.42;6.37;;;;;;;10.26;82.82;100437.45;1702754;83;21102;-63
2021/05/13 00:43:04;;;;;;;31.37;7.95;;;;;;;10.30;82.40;100440.44;1704489;82;21090;-63
2021/05/13 00:45:31;;;;;;;33.23;7.65;;;;;;;10.34;82.11;100437.63;1702598;84;22495;-61
2021/05/13 00:50:26;;;;;;;30.50;9.15;;;;;;;10.39;81.68;100435.64;1643019;85;21610;-62
2021/05/13 00:52:52;;;;;;;44.95;10.15;;;;;;;10.39;81.61;100436.98;1642041;86;20982;-63
2021/05/13 00:55:19;;;;;;;36.90;10.15;;;;;;;10.40;81.41;100442.33;1702543;84;21094;-61
2021/05/13 00:57:48;;;;;;;41.73;10.75;;;;;;;10.42;81.30;100436.89;1702807;82;21065;-62
2021/05/13 01:03:01;;;;;;;48.83;12.58;;;;;;;10.49;81.14;100442.40;1703109;84;21055;-63
2021/05/13 01:05:28;;;;;;;32.03;12.05;;;;;;;10.50;81.04;100434.80;1729831;82;21087;-62
2021/05/13 01:07:57;;;;;;;39.53;13.28;;;;;;;10.53;80.92;100427.97;1732383;82;21535;-63
2021/05/13 01:10:25;;;;;;;34.73;12.65;;;;;;;10.57;80.78;100421.55;1732150;81;21937;-62
2021/05/13 01:12:56;;;;;;;40.35;13.13;;;;;;;10.63;80.73;100415.52;1708152;82;21086;-63
2021/05/13 01:18:03;;;;;;;31.10;12.55;;;;;;;10.68;80.73;100417.09;1669813;84;21272;-63
2021/05/13 01:20:27;;;;;;;28.92;11.93;;;;;;;10.68;80.69;100412.17;1663709;86;21094;-61
2021/05/13 01:22:56;;;;;;;31.82;10.90;;;;;;;10.67;80.72;100419.36;1664624;86;21728;-62
2021/05/13 01:25:23;;;;;;;16.30;8.43;;;;;;;10.69;80.77;100422.85;1664040;85;21133;-61
2021/05/13 01:27:59;;;;;;;25.23;9.63;;;;;;;10.72;80.68;100425.41;1687188;84;21677;-63
2021/05/13 01:30:29;;;;;;;35.48;8.90;;;;;;;10.75;80.59;100425.76;1691772;84;21109;-61
2021/05/13 01:33:00;;;;;;;14.47;8.48;;;;;;;10.80;80.37;100425.09;1692098;83;21130;-64
2021/05/13 01:35:27;;;;;;;15.32;6.47;;;;;;;10.85;80.03;100415.53;1665149;84;22024;-61
2021/05/13 01:38:07;;;;;;;30.85;9.00;;;;;;;10.88;79.86;100424.30;1664023;84;21102;-61
2021/05/13 01:40:34;;;;;;;27.50;8.85;;;;;;;10.95;79.72;100425.41;1663451;86;21474;-62
2021/05/13 01:43:00;;;;;;;25.68;8.13;;;;;;;10.99;79.51;100420.31;1663437;86;21130;-61
2021/05/13 01:45:27;;;;;;;24.57;8.15;;;;;;;11.03;79.52;100431.31;1663942;84;21090;-63
2021/05/13 01:48:01;;;;;;;16.42;8.20;;;;;;;11.03;79.69;100424.12;1675726;83;21565;-61
2021/05/13 01:50:22;;;;;;;16.15;7.30;;;;;;;11.07;80.01;100422.19;1682911;83;21101;-61
2021/05/13 01:52:50;;;;;;;11.40;7.50;;;;;;;11.10;80.39;100424.73;1677862;85;21113;-61
2021/05/13 01:55:17;;;;;;;12.95;7.22;;;;;;;11.14;80.76;100419.64;1677778;84;21602;-61
2021/05/13 01:57:44;;;;;;;16.55;7.72;;;;;;;11.15;80.94;100417.36;1679088;84;21042;-62
2021/05/13 02:00:12;;;;;;;17.85;7.83;;;;;;;11.16;81.19;100413.77;1679325;83;21150;-62
2021/05/13 02:02:38;;;;;;;23.20;7.87;;;;;;;11.17;81.39;100414.17;1678671;85;21800;-61
2021/05/13 02:05:07;;;;;;;21.48;8.93;;;;;;;11.16;81.87;100409.74;1691109;84;21114;-63
2021/05/13 02:07:33;;;;;;;28.07;8.68;;;;;;;11.17;82.19;100409.25;1696534;82;21493;-62
2021/05/13 02:10:01;;;;;;;16.85;7.80;;;;;;;11.17;82.42;100410.14;1669351;85;21233;-60
2021/05/13 02:12:28;;;;;;;16.65;7.22;;;;;;;11.17;82.80;100415.52;1678571;84;21113;-62
2021/05/13 02:14:57;;;;;;;20.27;7.40;;;;;;;11.21;83.28;100416.72;1669460;85;21027;-60
2021/05/13 02:17:24;;;;;;;16.82;8.08;;;;;;;11.19;83.59;100416.77;1669755;84;21099;-61
2021/05/13 02:19:50;;;;;;;11.78;6.05;;;;;;;11.20;83.83;100413.63;1666567;84;21116;-61
2021/05/13 02:22:17;;;;;;;10.18;5.50;;;;;;;11.22;83.93;100419.31;1666114;86;21141;-60
2021/05/13 02:24:43;;;;;;;9.18;5.17;;;;;;;11.23;83.61;100430.94;1647249;84;21102;-61
2021/05/13 02:27:10;;;;;;;9.78;5.25;;;;;;;11.22;83.32;100438.09;1692498;84;21113;-60
2021/05/13 02:29:36;;;;;;;12.43;5.67;;;;;;;11.24;83.22;100432.68;1682501;84;21007;-63
2021/05/13 02:32:03;;;;;;;13.08;6.10;;;;;;;11.27;83.30;100432.55;1666424;85;21121;-61
2021/05/13 02:34:30;;;;;;;10.88;5.75;;;;;;;11.29;83.25;100430.66;1666557;84;21114;-61
2021/05/13 02:36:56;;;;;;;12.50;6.30;;;;;;;11.32;83.32;100429.19;1666769;86;21458;-64
2021/05/13 02:39:23;;;;;;;15.55;6.47;;;;;;;11.35;83.29;100425.02;1670157;84;21121;-63
2021/05/13 02:41:49;;;;;;;18.45;7.12;;;;;;;11.36;83.11;100426.77;1693614;84;21199;-61
2021/05/13 02:44:15;;;;;;;20.48;7.10;;;;;;;11.38;83.07;100427.56;1694464;84;21155;-61
2021/05/13 02:46:44;;;;;;;19.42;7.35;;;;;;;11.39;83.00;100423.97;1694682;84;21115;-60
2021/05/13 02:49:11;;;;;;;20.88;7.33;;;;;;;11.42;82.90;100430.55;1694846;84;21110;-63
2021/05/13 02:51:38;;;;;;;18.52;6.90;;;;;;;11.43;83.08;100429.61;1689892;83;21138;-63
2021/05/13 02:54:04;;;;;;;18.02;7.33;;;;;;;11.46;83.38;100425.89;1676220;83;21508;-62
2021/05/13 02:56:30;;;;;;;18.40;6.87;;;;;;;11.48;83.38;100416.45;1656575;86;21237;-62
2021/05/13 02:58:57;;;;;;;21.73;7.50;;;;;;;11.51;83.46;100414.96;1666082;85;21191;-62
2021/05/13 03:01:29;;;;;;;14.38;6.90;;;;;;;11.53;83.89;100409.94;1684127;83;21197;-62
2021/05/13 03:03:59;;;;;;;12.45;7.65;;;;;;;11.55;84.49;100416.56;1675842;83;21547;-62
2021/05/13 03:06:28;;;;;;;17.50;8.23;;;;;;;11.57;84.94;100416.02;1656593;86;21103;-62
2021/05/13 03:08:57;;;;;;;18.30;8.30;;;;;;;11.59;85.24;100416.83;1657140;86;21616;-61
2021/05/13 03:11:25;;;;;;;18.95;7.70;;;;;;;11.57;85.54;100416.91;1656546;86;21156;-62
2021/05/13 03:13:54;;;;;;;17.52;7.78;;;;;;;11.58;86.48;100417.31;1657817;85;21114;-62
2021/05/13 03:16:20;;;;;;;20.52;9.13;;;;;;;11.61;87.03;100409.11;1657542;85;21186;-61
2021/05/13 03:18:51;;;;;;;14.87;8.38;;;;;;;11.65;87.92;100410.31;1656748;86;21090;-65
2021/05/13 03:21:28;;;;;;;13.90;8.20;;;;;;;11.72;88.94;100404.60;1656440;85;21162;-61
2021/05/13 03:26:25;;;;;;;21.93;8.03;;;;;;;12.00;89.95;100412.73;1656470;85;22541;-63
2021/05/13 03:28:46;;;;;;;18.07;7.90;;;;;;;12.18;90.61;100408.81;1656047;85;21576;-62
2021/05/13 03:31:12;;;;;;;16.00;8.03;;;;;;;12.33;90.81;100399.15;1656523;86;21328;-62
2021/05/13 03:33:40;;;;;;;16.45;9.13;;;;;;;12.46;91.14;100401.66;1657229;85;21159;-67
2021/05/13 03:36:07;;;;;;;16.30;10.20;;;;;;;12.63;91.32;100396.39;1656669;86;21051;-70
2021/05/13 03:38:33;;;;;;;15.65;10.05;;;;;;;12.80;91.07;100408.53;1656543;86;21404;-68
2021/05/13 03:41:00;;;;;;;19.90;10.45;;;;;;;12.97;91.10;100408.17;1655938;86;21150;-68
2021/05/13 03:43:27;;;;;;;17.35;10.85;;;;;;;13.16;90.99;100409.44;1668202;85;21131;-67
2021/05/13 03:45:53;;;;;;;17.20;10.30;;;;;;;13.36;90.44;100402.16;1663683;86;21142;-67
2021/05/13 03:48:20;;;;;;;17.37;9.83;;;;;;;13.51;89.59;100401.84;1663670;84;21888;-67
2021/05/13 03:50:46;;;;;;;15.80;9.73;;;;;;;13.65;89.16;100403.80;1664611;84;21996;-68
2021/05/13 03:53:13;;;;;;;21.37;12.23;;;;;;;13.83;88.66;100401.96;1634887;86;21169;-68
2021/05/13 03:55:39;;;;;;;26.35;14.87;;;;;;;14.00;87.98;100399.19;1663887;86;21154;-68
2021/05/13 03:58:07;;;;;;;28.67;15.23;;;;;;;14.16;86.63;100392.95;1664053;86;21118;-68
2021/05/13 04:03:12;;;;;;;25.97;15.20;;;;;;;14.45;83.15;100395.83;1664115;85;21669;-67
2021/05/13 04:05:38;;;;;;;23.65;13.98;;;;;;;14.57;81.99;100403.70;1664045;84;21130;-68
2021/05/13 04:08:07;;;;;;;21.33;14.33;;;;;;;14.69;80.83;100394.02;1689594;84;21086;-67
2021/05/13 04:10:35;;;;;;;22.05;14.58;;;;;;;14.78;79.83;100398.05;1640061;86;21270;-68
2021/05/13 04:13:04;;;;;;;23.02;13.65;;;;;;;14.82;79.00;100392.39;1664340;84;21122;-68
2021/05/13 04:15:31;;;;;;;22.17;13.80;;;;;;;14.87;77.92;100388.94;1664200;86;21465;-67
2021/05/13 04:17:57;;;;;;;17.45;11.80;;;;;;;14.94;77.33;100395.34;1668883;84;21097;-67
2021/05/13 04:20:24;;;;;;;18.27;10.95;;;;;;;14.97;75.65;100397.86;1664019;84;21150;-69
2021/05/13 04:22:50;;;;;;;18.02;11.57;;;;;;;14.96;74.55;100400.17;1697835;84;21325;-67
2021/05/13 04:25:17;;;;;;;17.77;11.20;;;;;;;14.95;74.23;100399.78;1723730;83;21027;-68
2021/05/13 04:27:43;;;;;;;16.23;10.58;;;;;;;14.94;74.13;100397.55;1728275;82;21699;-67
2021/05/13 04:30:11;;;;;;;14.38;10.40;;;;;;;14.95;74.02;100405.17;1702662;84;21071;-68
2021/05/13 04:32:38;;;;;;;15.25;9.38;;;;;;;14.92;73.87;100409.38;1702767;83;21151;-67
2021/05/13 04:35:06;;;;;;;15.50;9.25;;;;;;;14.89;73.70;100403.20;1702596;84;21543;-67
2021/05/13 04:37:33;;;;;;;11.10;7.60;;;;;;;14.92;73.73;100406.68;1702751;84;21462;-68
2021/05/13 04:39:59;;;;;;;11.60;8.05;;;;;;;15.00;73.48;100407.13;1702747;84;21693;-67
2021/05/13 04:42:26;;;;;;;9.48;6.80;;;;;;;15.04;73.26;100407.33;1703469;82;21018;-67
2021/05/13 04:44:54;;;;;;;9.45;6.03;;;;;;;15.07;73.23;100400.88;1702854;83;21082;-66
2021/05/13 04:47:34;;;;;;;9.08;5.55;;;;;;;15.11;73.27;100405.13;1702612;82;21682;-67
2021/05/13 04:49:55;;;;;;;6.60;5.20;;;;;;;15.17;72.92;100408.80;1720019;82;21070;-67
2021/05/13 04:52:24;;;;;;;7.65;5.50;;;;;;;15.21;72.67;100412.20;1737380;81;21097;-67
2021/05/13 04:54:52;;;;;;;16.80;6.42;;;;;;;15.25;72.26;100407.00;1746420;80;21452;-68
2021/05/13 04:57:19;;;;;;;9.93;5.60;;;;;;;15.28;72.18;100413.09;1743869;82;21106;-68
2021/05/13 04:59:45;;;;;;;7.50;5.53;;;;;;;15.29;72.38;100413.95;1716336;83;21093;-67
2021/05/13 05:02:12;;;;;;;9.05;6.00;;;;;;;15.28;72.60;100412.21;1716083;82;21073;-67
2021/05/13 05:04:38;;;;;;;9.93;5.72;;;;;;;15.29;72.69;100409.90;1733660;82;22053;-67
2021/05/13 05:07:05;;;;;;;7.78;5.80;;;;;;;15.36;72.84;100405.00;1745805;82;21059;-65
2021/05/13 05:09:32;;;;;;;9.65;6.10;;;;;;;15.45;72.89;100412.06;1722818;82;21081;-72
2021/05/13 05:11:58;;;;;;;9.28;6.72;;;;;;;15.56;73.00;100405.12;1716061;82;21117;-67
2021/05/13 05:14:25;;;;;;;9.90;6.03;;;;;;;15.69;72.79;100403.41;1716938;82;21758;-67
2021/05/13 05:16:52;;;;;;;12.43;6.78;;;;;;;15.86;72.39;100417.71;1716675;82;21693;-67
2021/05/13 05:19:18;;;;;;;10.98;6.75;;;;;;;16.01;72.01;100413.20;1715791;82;21590;-67
2021/05/13 05:21:45;;;;;;;14.35;6.00;;;;;;;16.19;71.49;100415.20;1716114;82;21559;-66
2021/05/13 05:24:12;;;;;;;11.28;5.60;;;;;;;16.33;71.04;100405.73;1716163;82;22250;-66
2021/05/13 05:26:38;;;;;;;9.18;5.62;;;;;;;16.49;70.31;100404.73;1717697;82;21050;-66
2021/05/13 05:29:05;;;;;;;8.63;5.22;;;;;;;16.64;69.40;100401.97;1725413;82;21113;-68
2021/05/13 05:31:32;;;;;;;9.83;5.40;;;;;;;16.76;68.56;100401.17;1716900;82;21140;-68
2021/05/13 05:33:59;;;;;;;9.83;5.28;;;;;;;16.85;67.69;100399.19;1738425;82;21587;-67
2021/05/13 05:36:28;;;;;;;10.05;5.20;;;;;;;16.88;66.87;100392.20;1726955;82;21110;-67
2021/05/13 05:38:55;;;;;;;6.80;4.80;;;;;;;16.94;66.62;100395.50;1715495;82;21102;-67
2021/05/13 05:41:23;;;;;;;11.73;5.17;;;;;;;17.00;66.52;100397.81;1734896;82;21243;-68
2021/05/13 05:43:49;;;;;;;6.72;4.92;;;;;;;17.07;66.08;100405.89;1725328;82;21312;-67
2021/05/13 05:46:16;;;;;;;7.28;4.62;;;;;;;17.11;66.66;100404.70;1730771;82;21101;-69
2021/05/13 05:48:43;;;;;;;8.90;4.70;;;;;;;17.15;66.55;100412.14;1723426;82;21612;-67
2021/05/13 05:51:10;;;;;;;6.30;4.08;;;;;;;17.20;65.39;100411.84;1728623;82;21665;-69
2021/05/13 05:53:37;;;;;;;6.03;4.37;;;;;;;17.20;64.18;100410.48;1723562;82;21393;-68
2021/05/13 05:56:04;;;;;;;8.65;4.05;;;;;;;17.13;63.77;100420.39;1723192;82;21103;-67
2021/05/13 05:58:31;;;;;;;6.58;4.42;;;;;;;17.11;63.97;100422.31;1728201;82;21387;-68
2021/05/13 06:00:57;;;;;;;5.37;3.92;;;;;;;17.15;64.02;100414.38;1719179;82;21137;-66
2021/05/13 06:03:25;;;;;;;6.97;3.85;;;;;;;17.20;63.70;100411.84;1728004;82;21173;-66
2021/05/13 06:05:51;;;;;;;5.28;3.67;;;;;;;17.18;63.35;100416.87;1724986;82;21567;-68
2021/05/13 06:08:18;;;;;;;7.65;3.80;;;;;;;17.13;63.64;100430.34;1726750;82;21629;-67
2021/05/13 06:10:46;;;;;;;7.47;3.77;;;;;;;17.11;63.83;100423.66;1726274;82;21499;-67
2021/05/13 06:13:13;;;;;;;9.35;4.05;;;;;;;17.14;63.74;100432.96;1726619;82;21667;-67
2021/05/13 06:15:40;;;;;;;4.85;3.98;;;;;;;17.15;64.07;100452.30;1723232;80;21113;-66
2021/05/13 06:18:07;;;;;;;8.80;3.87;;;;;;;17.17;64.43;100444.94;1730113;80;21195;-63
2021/05/13 06:20:42;;;;;;;5.62;3.90;;;;;;;17.19;64.47;100443.46;1733276;80;20978;-62
2021/05/13 06:23:09;;;;;;;5.92;3.92;;;;;;;17.24;64.51;100448.11;1729654;82;21130;-61
2021/05/13 06:25:36;;;;;;;5.22;3.65;;;;;;;17.29;64.44;100445.95;1729542;82;22505;-64
2021/05/13 06:28:04;;;;;;;7.00;3.87;;;;;;;17.35;64.24;100435.66;1731353;82;21105;-60
2021/05/13 06:30:31;;;;;;;5.90;3.85;;;;;;;17.38;63.90;100439.50;1726246;82;21823;-63
2021/05/13 06:32:58;;;;;;;8.10;3.50;;;;;;;17.42;63.63;100440.55;1729507;82;21453;-64
2021/05/13 06:35:38;;;;;;;5.95;3.75;;;;;;;17.49;63.80;100442.83;1720944;82;21622;-62
2021/05/13 06:38:10;;;;;;;4.97;3.62;;;;;;;17.55;63.66;100441.92;1666700;82;21571;-61
2021/05/13 06:40:37;;;;;;;4.95;3.62;;;;;;;17.66;63.31;100442.52;1725987;82;21105;-62
2021/05/13 06:43:04;;;;;;;5.83;3.80;;;;;;;17.75;63.25;100442.38;1726381;82;21165;-62
2021/05/13 06:45:31;;;;;;;5.60;3.75;;;;;;;17.81;63.55;100441.08;1725221;82;21045;-62
2021/05/13 06:48:11;;;;;;;5.33;3.70;;;;;;;17.80;63.93;100440.70;1727259;82;21598;-62
2021/05/13 06:50:56;;;;;;;4.53;3.62;;;;;;;17.71;64.12;100449.84;1724380;82;20958;-63
2021/05/13 06:53:39;;;;;;;11.45;4.00;;;;;;;17.59;64.05;100454.28;1713613;80;20962;-66
2021/05/13 06:56:44;;;;;;;6.45;4.08;;;;;;;17.42;64.85;100450.03;1707747;82;20932;-65
2021/05/13 06:59:19;;;;;;;8.08;3.92;;;;;;;17.17;65.02;100467.08;1703019;82;20951;-66
2021/05/13 07:01:54;;;;;;;7.80;4.08;;;;;;;16.97;65.58;100462.98;1724191;82;21499;-62
2021/05/13 07:04:27;;;;;;;7.42;4.15;;;;;;;16.86;66.17;100456.42;1713639;82;20983;-64
2021/05/13 07:07:06;;;;;;;7.55;3.60;;;;;;;16.82;66.55;100464.37;1704141;82;21169;-62
2021/05/13 07:09:54;;;;;;;10.75;3.70;;;;;;;16.80;66.62;100466.31;1683607;82;21109;-66
2021/05/13 07:12:37;;;;;;;5.58;3.30;;;;;;;16.84;67.02;100468.34;1704295;82;21831;-68
2021/05/13 07:14:56;;;;;;;7.10;3.67;;;;;;;16.89;65.79;100463.48;1721073;82;20891;-68
2021/05/13 07:17:23;;;;;;;4.87;3.55;;;;;;;16.90;65.07;100471.48;1730913;82;21086;-68
2021/05/13 07:19:49;;;;;;;4.80;3.30;;;;;;;16.90;64.18;100481.47;1731308;82;21117;-68
2021/05/13 07:22:18;;;;;;;5.67;3.30;;;;;;;16.90;63.29;100481.47;1725636;80;21106;-68
2021/05/13 07:24:44;;;;;;;5.22;3.75;;;;;;;16.94;62.61;100490.27;1726510;82;21097;-65
2021/05/13 07:27:12;;;;;;;11.63;3.37;;;;;;;17.00;62.38;100488.53;1722743;82;21093;-65
2021/05/13 07:29:39;;;;;;;4.00;3.17;;;;;;;17.11;62.11;100492.73;1729028;82;20987;-66
2021/05/13 07:32:06;;;;;;;8.25;3.33;;;;;;;17.22;61.42;100485.74;1724241;82;21161;-65
2021/05/13 07:34:33;;;;;;;6.20;3.20;;;;;;;17.33;60.91;100488.58;1727617;82;21740;-64
2021/05/13 07:37:02;;;;;;;6.47;3.83;;;;;;;17.44;60.78;100486.02;1728007;82;20991;-66
2021/05/13 07:39:29;;;;;;;6.20;3.85;;;;;;;17.58;60.77;100479.64;1728334;82;21415;-66
2021/05/13 07:41:56;;;;;;;6.65;3.50;;;;;;;17.66;59.73;100484.55;1726735;82;21524;-66
2021/05/13 07:44:26;;;;;;;5.42;3.33;;;;;;;17.66;59.08;100476.41;1734523;82;20935;-63
2021/05/13 07:46:57;;;;;;;4.22;3.25;;;;;;;17.63;58.76;100482.52;1668916;83;21204;-66
2021/05/13 07:49:25;;;;;;;4.40;3.25;;;;;;;17.56;58.62;100482.07;1720746;82;22190;-69
2021/05/13 07:51:53;;;;;;;7.42;2.98;;;;;;;17.47;58.04;100483.09;1721876;80;21113;-70
2021/05/13 07:54:19;;;;;;;5.35;2.83;;;;;;;17.36;57.89;100482.09;1713667;80;21107;-64
2021/05/13 07:56:47;;;;;;;3.15;2.47;;;;;;;17.24;57.78;100482.44;1712225;81;21094;-63
2021/05/13 07:59:14;;;;;;;3.98;2.80;;;;;;;17.13;57.48;100481.34;1716033;81;21189;-68
2021/05/13 08:01:40;;;;;;;3.70;2.37;;;;;;;17.02;57.84;100478.46;1709186;82;21278;-68
2021/05/13 08:04:07;;;;;;;3.00;2.33;;;;;;;16.99;58.38;100478.67;1710242;82;21086;-67
2021/05/13 08:06:33;;;;;;;4.60;2.30;;;;;;;16.98;58.36;100465.60;1710906;82;21141;-69
2021/05/13 08:09:01;;;;;;;2.20;1.85;;;;;;;16.96;57.78;100466.66;1714780;81;21778;-70
2021/05/13 08:11:27;;;;;;;7.28;2.10;;;;;;;16.92;57.68;100465.13;1711164;82;21169;-68
2021/05/13 08:13:54;;;;;;;4.67;2.60;;;;;;;16.83;57.39;100456.63;1721401;82;21118;-69
2021/05/13 08:16:21;;;;;;;5.35;2.75;;;;;;;16.73;58.25;100458.22;1714524;82;21539;-69
2021/05/13 08:18:48;;;;;;;4.20;2.50;;;;;;;16.65;59.53;100459.19;1710658;82;21057;-68
2021/05/13 08:21:15;;;;;;;2.60;2.20;;;;;;;16.58;60.03;100450.13;1661112;85;21078;-67
2021/05/13 08:23:41;;;;;;;4.22;2.40;;;;;;;16.52;59.51;100447.83;1721797;82;21834;-67
2021/05/13 08:26:08;;;;;;;3.08;2.17;;;;;;;16.48;59.81;100443.59;1711785;82;21690;-67
2021/05/13 08:28:35;;;;;;;2.50;2.22;;;;;;;16.43;60.25;100440.29;1713636;82;21121;-68
2021/05/13 08:31:02;;;;;;;4.17;2.37;;;;;;;16.43;61.13;100442.99;1712932;82;21138;-68
2021/05/13 08:33:29;;;;;;;6.78;2.40;;;;;;;16.43;62.03;100439.82;1711532;82;21031;-70
2021/05/13 08:35:55;;;;;;;4.87;2.55;;;;;;;16.42;62.49;100429.09;1711560;82;21119;-68
2021/05/13 08:38:23;;;;;;;3.40;2.40;;;;;;;16.43;63.09;100435.77;1712760;82;21090;-68
2021/05/13 08:40:51;;;;;;;4.40;2.08;;;;;;;16.38;63.35;100428.44;1717464;82;21118;-68
2021/05/13 08:43:28;;;;;;;3.55;2.30;;;;;;;16.29;63.26;100419.08;1663769;85;21592;-68
2021/05/13 08:45:57;;;;;;;3.52;2.60;;;;;;;16.21;63.82;100420.53;1661262;85;21507;-68
2021/05/13 08:48:25;;;;;;;2.77;2.37;;;;;;;16.14;64.45;100420.05;1716574;82;21060;-68
2021/05/13 08:50:53;;;;;;;4.42;2.50;;;;;;;16.06;64.66;100426.44;1717139;82;21031;-61
2021/05/13 08:53:20;;;;;;;3.50;2.35;;;;;;;16.01;65.32;100430.28;1712323;82;21228;-63
2021/05/13 08:55:48;;;;;;;3.90;2.42;;;;;;;15.97;66.28;100430.09;1723520;82;21134;-62
2021/05/13 08:58:14;;;;;;;3.20;2.70;;;;;;;15.92;67.65;100430.88;1727855;82;21120;-62
2021/05/13 09:00:52;;;;;;;4.35;2.35;;;;;;;15.86;68.42;100435.28;1724854;80;21466;-63
2021/05/13 09:03:36;;;;;;;4.40;2.42;;;;;;;15.79;68.58;100444.72;1731125;82;20947;-64
2021/05/13 09:06:04;;;;;;;3.60;2.22;;;;;;;15.75;68.48;100442.70;1723756;82;21198;-62
2021/05/13 09:08:31;;;;;;;4.20;2.20;;;;;;;15.74;68.45;100450.43;1708536;82;21116;-63
2021/05/13 09:11:17;;;;;;;4.60;2.20;;;;;;;15.73;68.98;100444.14;1722250;82;21074;-61
2021/05/13 09:13:49;;;;;;;3.67;2.12;;;;;;;15.69;68.87;100448.47;1722771;82;21632;-68
2021/05/13 09:16:37;;;;;;;4.45;2.17;;;;;;;15.69;68.80;100446.65;1721757;82;20961;-68
2021/05/13 09:19:34;;;;;;;3.42;2.50;;;;;;;15.69;68.81;100456.58;1728098;82;21204;-68
2021/05/13 09:22:09;;;;;;;3.20;2.30;;;;;;;15.70;69.27;100461.90;1725514;82;22291;-67
2021/05/13 09:24:48;;;;;;;3.83;2.10;;;;;;;15.74;69.88;100464.80;1729477;82;20931;-66
2021/05/13 09:27:22;;;;;;;2.87;1.98;;;;;;;15.82;69.51;100462.12;1723935;82;21108;-63
2021/05/13 09:30:10;;;;;;;8.03;2.20;;;;;;;15.90;69.90;100461.19;1724613;82;21129;-64
2021/05/13 09:32:38;;;;;;;6.12;2.20;;;;;;;15.94;69.74;100454.63;1729620;82;21098;-64
2021/05/13 09:35:13;;;;;;;2.50;2.17;;;;;;;16.00;70.25;100459.63;1731489;82;21137;-64
2021/05/13 09:38:01;;;;;;;2.80;1.62;;;;;;;16.08;70.22;100458.30;1727487;82;21018;-64
2021/05/13 09:40:49;;;;;;;3.52;1.85;;;;;;;16.15;70.38;100460.53;1722961;82;21166;-63
2021/05/13 09:43:18;;;;;;;4.33;1.80;;;;;;;16.24;70.10;100464.95;1733684;80;21077;-61
2021/05/13 09:45:55;;;;;;;2.22;1.80;;;;;;;16.32;69.24;100474.33;1731648;82;21077;-65
2021/05/13 09:48:44;;;;;;;3.17;1.87;;;;;;;16.37;68.77;100475.86;1733300;82;21130;-64
2021/05/13 09:51:37;;;;;;;3.45;1.60;;;;;;;16.39;68.76;100476.16;1726554;82;21042;-62
2021/05/13 09:54:17;;;;;;;3.80;1.85;;;;;;;16.46;68.09;100480.67;1733671;81;21078;-65
2021/05/13 09:56:47;;;;;;;4.28;1.80;;;;;;;16.47;67.41;100474.33;1726867;82;21126;-65
2021/05/13 09:59:37;;;;;;;5.55;1.70;;;;;;;16.44;67.59;100484.84;1721007;82;21110;-66
2021/05/13 10:02:10;;;;;;;2.27;1.72;;;;;;;16.39;68.02;100488.34;1724069;82;21134;-66
2021/05/13 10:04:37;;;;;;;5.75;1.77;;;;;;;16.44;68.31;100492.08;1707111;82;20939;-65
2021/05/13 10:07:04;;;;;;;4.85;1.80;;;;;;;16.48;67.90;100493.65;1733329;82;21010;-62
2021/05/13 10:09:31;;;;;;;4.20;1.95;;;;;;;16.47;67.65;100490.56;1729130;82;21026;-66
2021/05/13 10:12:00;;;;;;;5.15;1.65;;;;;;;16.47;67.69;100493.27;1734990;80;21356;-66
2021/05/13 10:14:28;;;;;;;2.95;1.65;;;;;;;16.43;68.02;100494.41;1735220;82;20943;-65
2021/05/13 10:16:57;;;;;;;2.77;1.50;;;;;;;16.35;68.33;100493.53;1727918;82;21054;-63
2021/05/13 10:19:42;;;;;;;7.75;1.67;;;;;;;16.25;68.70;100488.34;1709487;82;21046;-65
2021/05/13 10:22:12;;;;;;;9.85;1.87;;;;;;;16.15;69.27;100483.98;1723307;82;21125;-65
2021/05/13 10:24:39;;;;;;;6.05;1.92;;;;;;;16.09;69.56;100485.23;1706499;82;21073;-66
2021/05/13 10:27:19;;;;;;;5.50;1.87;;;;;;;16.01;69.86;100486.20;1725557;82;21607;-63
2021/05/13 10:29:47;;;;;;;3.70;1.70;;;;;;;15.96;70.18;100484.27;1715658;82;21018;-65
2021/05/13 10:32:23;;;;;;;2.45;1.98;;;;;;;15.96;70.34;100481.08;1724061;82;22592;-65
2021/05/13 10:34:57;;;;;;;3.20;1.80;;;;;;;15.96;70.64;100478.37;1700242;82;21134;-66
2021/05/13 10:37:41;;;;;;;;;;;;;;;15.94;70.87;100466.78;1727020;82;21128;-62
2021/05/13 10:43:02;;;;;;;3.30;1.73;;;;;;;15.98;71.06;100473.73;1723455;82;21074;-62
2021/05/13 10:45:44;;;;;;;2.35;1.70;;;;;;;16.05;70.27;100466.11;1730929;82;21904;-66
2021/05/13 10:48:25;;;;;;;6.10;2.15;;;;;;;16.14;70.08;100475.48;1733100;82;21407;-64
2021/05/13 10:50:58;;;;;;;4.30;2.30;;;;;;;16.28;69.80;100474.14;1726433;82;21176;-65
2021/05/13 10:53:45;;;;;;;6.62;2.20;;;;;;;16.44;69.15;100478.55;1714767;82;21191;-62
2021/05/13 10:56:15;;;;;;;5.78;1.95;;;;;;;16.56;68.91;100471.01;1725112;82;21129;-64
2021/05/13 10:59:01;;;;;;;3.25;1.82;;;;;;;16.68;68.91;100467.98;1729965;80;21081;-63
2021/05/13 11:01:46;;;;;;;2.80;1.98;;;;;;;16.80;68.37;100467.66;1730558;80;21205;-64
2021/05/13 11:04:29;;;;;;;2.37;1.90;;;;;;;16.85;68.41;100470.93;1730855;82;21555;-65
2021/05/13 11:07:06;;;;;;;6.42;1.98;;;;;;;16.93;68.40;100470.42;1725485;82;21099;-65
2021/05/13 11:09:50;;;;;;;4.35;2.20;;;;;;;17.06;68.16;100469.16;1732131;82;22481;-64
2021/05/13 11:12:24;;;;;;;3.77;1.95;;;;;;;17.20;67.26;100466.02;1724037;82;21429;-64
2021/05/13 11:17:52;;;;;;;3.33;1.67;;;;;;;17.31;67.00;100463.44;1729147;82;21149;-63
2021/05/13 11:20:32;;;;;;;2.10;1.90;;;;;;;17.40;66.58;100457.87;1729996;82;21144;-65
2021/05/13 11:23:09;;;;;;;4.17;2.12;;;;;;;17.43;66.08;100462.61;1727017;82;21049;-66
2021/05/13 11:26:00;;;;;;;8.00;2.33;;;;;;;17.36;66.47;100463.13;1731818;82;21250;-64
2021/05/13 11:28:46;;;;;;;4.45;2.05;;;;;;;17.36;66.83;100461.30;1729042;80;21167;-65
2021/05/13 11:31:20;;;;;;;6.30;2.20;;;;;;;17.40;66.54;100460.11;1723491;82;21114;-65
2021/05/13 11:33:56;;;;;;;4.22;2.17;;;;;;;17.39;66.29;100455.67;1734255;82;20991;-65
2021/05/13 11:36:29;;;;;;;4.78;2.30;;;;;;;17.34;66.49;100463.22;1728666;82;21185;-63
2021/05/13 11:39:00;;;;;;;6.35;2.40;;;;;;;17.28;66.53;100456.88;1669859;84;21605;-62
2021/05/13 11:41:27;;;;;;;6.58;2.35;;;;;;;17.22;67.06;100449.17;1727348;82;21733;-61
2021/05/13 11:43:53;;;;;;;4.85;2.40;;;;;;;17.21;67.74;100444.22;1729970;80;21045;-61
2021/05/13 11:46:23;;;;;;;3.33;1.75;;;;;;;17.24;67.97;100442.69;1725458;80;21163;-62
2021/05/13 11:48:51;;;;;;;2.87;2.00;;;;;;;17.26;67.43;100440.73;1725795;80;21537;-63
2021/05/13 11:51:29;;;;;;;6.62;2.35;;;;;;;17.21;67.31;100436.59;1725605;82;21736;-61
2021/05/13 11:54:04;;;;;;;6.80;2.60;;;;;;;17.11;67.92;100443.98;1731501;82;21018;-61